AXM216 WBKK-WMKP
Flight info
| Callsign | AXM216 |
|---|---|
| Flight time | N/A |
| Altitude | 36000 |
| Route | ADLEX1F ADLEX Y446 PADLO Y447 OLKIT M758 OPULA DCT UPVUN M758 IDSEL DCT VPK G582 VBA DCT SUKAT A457 TEPUS GORVU1F |
| Aircraft | A320/M-SDE3FGHIRWY/LB1 |
Departure
| Time | N/A |
|---|---|
| Airport | Kota Kinabalu International Airport (WBKK) |
Arrival
| Time | 2026-04-28 11:06 |
|---|---|
| Airport | Penang International Airport (WMKP) |
| Time | Latitude | Longitude | Altitude | Speed | Heading |
|---|---|---|---|---|---|
| 2026-04-28 10:30 | 3.35693 | 102.46355 | 33791 ft | 488 kts | 269° |
| 2026-04-28 10:31 | 3.35664 | 102.42961 | 33790 ft | 488 kts | 269° |
| 2026-04-28 10:31 | 3.35581 | 102.36164 | 33789 ft | 491 kts | 269° |
| 2026-04-28 10:32 | 3.35482 | 102.29309 | 33793 ft | 494 kts | 269° |
| 2026-04-28 10:32 | 3.35390 | 102.22481 | 33794 ft | 494 kts | 269° |
| 2026-04-28 10:33 | 3.35302 | 102.15608 | 33800 ft | 494 kts | 269° |
| 2026-04-28 10:33 | 3.35209 | 102.08732 | 33799 ft | 494 kts | 269° |
| 2026-04-28 10:34 | 3.35069 | 102.01861 | 33806 ft | 493 kts | 268° |
| 2026-04-28 10:34 | 3.34706 | 101.95009 | 33805 ft | 493 kts | 266° |
| 2026-04-28 10:35 | 3.34271 | 101.88163 | 33796 ft | 492 kts | 266° |
| 2026-04-28 10:35 | 3.33883 | 101.81310 | 33794 ft | 494 kts | 266° |
| 2026-04-28 10:36 | 3.33532 | 101.74457 | 33777 ft | 493 kts | 267° |
| 2026-04-28 10:36 | 3.33183 | 101.67606 | 33768 ft | 493 kts | 266° |
| 2026-04-28 10:37 | 3.32858 | 101.60804 | 33770 ft | 492 kts | 267° |
| 2026-04-28 10:37 | 3.32668 | 101.53945 | 33764 ft | 493 kts | 268° |
| 2026-04-28 10:38 | 3.32948 | 101.47111 | 33764 ft | 492 kts | 282° |
| 2026-04-28 10:38 | 3.34003 | 101.43846 | 33769 ft | 494 kts | 295° |
| 2026-04-28 10:38 | 3.35657 | 101.40841 | 33775 ft | 493 kts | 301° |
| 2026-04-28 10:39 | 3.39195 | 101.34966 | 33777 ft | 491 kts | 301° |
| 2026-04-28 10:39 | 3.42733 | 101.29114 | 33779 ft | 492 kts | 301° |
| 2026-04-28 10:40 | 3.46265 | 101.23247 | 33783 ft | 492 kts | 301° |
| 2026-04-28 10:40 | 3.49771 | 101.17406 | 33784 ft | 493 kts | 301° |
| 2026-04-28 10:41 | 3.53298 | 101.11528 | 33784 ft | 493 kts | 301° |
| 2026-04-28 10:41 | 3.56855 | 101.05651 | 33782 ft | 493 kts | 304° |
| 2026-04-28 10:41 | 3.59038 | 101.03026 | 33781 ft | 492 kts | 317° |
| 2026-04-28 10:42 | 3.61734 | 101.00934 | 33788 ft | 491 kts | 330° |
| 2026-04-28 10:42 | 3.67902 | 100.98018 | 33788 ft | 490 kts | 336° |
| 2026-04-28 10:43 | 3.74017 | 100.95274 | 33336 ft | 477 kts | 336° |
| 2026-04-28 10:43 | 3.77072 | 100.93900 | 32164 ft | 484 kts | 336° |
| 2026-04-28 10:43 | 3.80144 | 100.92518 | 30942 ft | 484 kts | 336° |
| 2026-04-28 10:43 | 3.83182 | 100.91148 | 30327 ft | 475 kts | 336° |
| 2026-04-28 10:44 | 3.85173 | 100.90251 | 30123 ft | 473 kts | 337° |
| 2026-04-28 10:44 | 3.88171 | 100.88903 | 29796 ft | 475 kts | 336° |
| 2026-04-28 10:44 | 3.92196 | 100.87094 | 28738 ft | 475 kts | 336° |
| 2026-04-28 10:44 | 3.95164 | 100.85755 | 28417 ft | 463 kts | 337° |
| 2026-04-28 10:45 | 3.98075 | 100.84442 | 27904 ft | 456 kts | 337° |
| 2026-04-28 10:45 | 4.00954 | 100.83147 | 27342 ft | 451 kts | 337° |
| 2026-04-28 10:45 | 4.03807 | 100.81864 | 26809 ft | 448 kts | 337° |
| 2026-04-28 10:45 | 4.06633 | 100.80593 | 26121 ft | 441 kts | 337° |
| 2026-04-28 10:46 | 4.08476 | 100.79765 | 25557 ft | 437 kts | 337° |
| 2026-04-28 10:46 | 4.11237 | 100.78523 | 24709 ft | 431 kts | 337° |
| 2026-04-28 10:46 | 4.13955 | 100.77303 | 23882 ft | 425 kts | 337° |
| 2026-04-28 10:46 | 4.16637 | 100.76098 | 23026 ft | 420 kts | 337° |
| 2026-04-28 10:47 | 4.19293 | 100.74913 | 22100 ft | 415 kts | 337° |
| 2026-04-28 10:47 | 4.21921 | 100.73762 | 21247 ft | 410 kts | 338° |
| 2026-04-28 10:47 | 4.24521 | 100.72633 | 20413 ft | 405 kts | 338° |
| 2026-04-28 10:47 | 4.27920 | 100.71164 | 19362 ft | 399 kts | 338° |
| 2026-04-28 10:48 | 4.29633 | 100.70422 | 18849 ft | 396 kts | 338° |
| 2026-04-28 10:48 | 4.32144 | 100.69331 | 18108 ft | 391 kts | 338° |
| 2026-04-28 10:48 | 4.34627 | 100.68248 | 17277 ft | 387 kts | 338° |
| 2026-04-28 10:48 | 4.37086 | 100.67176 | 16486 ft | 383 kts | 338° |
| 2026-04-28 10:49 | 4.39511 | 100.66118 | 15727 ft | 378 kts | 338° |
| 2026-04-28 10:49 | 4.41878 | 100.65085 | 15002 ft | 374 kts | 338° |
| 2026-04-28 10:49 | 4.44250 | 100.64050 | 14281 ft | 370 kts | 338° |
| 2026-04-28 10:49 | 4.46598 | 100.63027 | 13571 ft | 366 kts | 338° |
| 2026-04-28 10:50 | 4.48917 | 100.62017 | 12780 ft | 361 kts | 338° |
| 2026-04-28 10:50 | 4.51228 | 100.61012 | 12275 ft | 360 kts | 338° |
| 2026-04-28 10:50 | 4.53512 | 100.60017 | 11953 ft | 353 kts | 338° |
| 2026-04-28 10:50 | 4.55732 | 100.59049 | 11611 ft | 348 kts | 338° |
| 2026-04-28 10:51 | 4.57964 | 100.58077 | 11028 ft | 350 kts | 338° |
| 2026-04-28 10:51 | 4.60195 | 100.57108 | 10566 ft | 349 kts | 338° |
| 2026-04-28 10:51 | 4.62417 | 100.56141 | 10111 ft | 347 kts | 338° |
| 2026-04-28 10:51 | 4.64610 | 100.55184 | 9878 ft | 338 kts | 338° |
| 2026-04-28 10:52 | 4.66724 | 100.54258 | 9763 ft | 326 kts | 338° |
| 2026-04-28 10:52 | 4.68766 | 100.53362 | 9653 ft | 315 kts | 338° |
| 2026-04-28 10:52 | 4.70711 | 100.52510 | 9515 ft | 304 kts | 338° |
| 2026-04-28 10:52 | 4.72627 | 100.51674 | 9273 ft | 298 kts | 338° |
| 2026-04-28 10:53 | 4.74520 | 100.50849 | 8949 ft | 295 kts | 338° |
| 2026-04-28 10:53 | 4.76397 | 100.50031 | 8805 ft | 295 kts | 338° |
| 2026-04-28 10:53 | 4.78277 | 100.49209 | 8691 ft | 295 kts | 338° |
| 2026-04-28 10:53 | 4.80156 | 100.48389 | 8564 ft | 294 kts | 338° |
| 2026-04-28 10:54 | 4.81954 | 100.47412 | 8439 ft | 296 kts | 325° |
| 2026-04-28 10:54 | 4.83462 | 100.46011 | 8314 ft | 297 kts | 310° |
| 2026-04-28 10:54 | 4.84717 | 100.44366 | 8196 ft | 297 kts | 308° |
| 2026-04-28 10:54 | 4.85964 | 100.42721 | 8079 ft | 296 kts | 308° |
| 2026-04-28 10:55 | 4.87214 | 100.41079 | 7960 ft | 296 kts | 308° |
| 2026-04-28 10:55 | 4.88461 | 100.39443 | 7811 ft | 296 kts | 308° |
| 2026-04-28 10:55 | 4.89708 | 100.37809 | 7474 ft | 294 kts | 308° |
| 2026-04-28 10:55 | 4.90949 | 100.36185 | 7096 ft | 293 kts | 308° |
| 2026-04-28 10:56 | 4.92183 | 100.34564 | 6727 ft | 291 kts | 308° |
| 2026-04-28 10:56 | 4.93392 | 100.32974 | 6381 ft | 290 kts | 308° |
| 2026-04-28 10:56 | 4.94604 | 100.31379 | 6146 ft | 281 kts | 308° |
| 2026-04-28 10:56 | 4.95747 | 100.29877 | 6014 ft | 261 kts | 308° |
| 2026-04-28 10:57 | 4.96817 | 100.28472 | 5784 ft | 250 kts | 309° |
| 2026-04-28 10:57 | 4.97861 | 100.27103 | 5546 ft | 244 kts | 309° |
| 2026-04-28 10:57 | 4.98875 | 100.25769 | 5306 ft | 236 kts | 309° |
| 2026-04-28 10:57 | 4.99850 | 100.24482 | 5077 ft | 227 kts | 309° |
| 2026-04-28 10:58 | 5.00790 | 100.23247 | 4877 ft | 219 kts | 309° |
| 2026-04-28 10:58 | 5.01691 | 100.22063 | 4747 ft | 205 kts | 309° |
| 2026-04-28 10:58 | 5.02514 | 100.20978 | 4652 ft | 188 kts | 309° |
| 2026-04-28 10:58 | 5.03290 | 100.19958 | 4500 ft | 181 kts | 309° |
| 2026-04-28 10:59 | 5.04157 | 100.19067 | 4327 ft | 177 kts | 327° |
| 2026-04-28 10:59 | 5.05207 | 100.18479 | 4158 ft | 173 kts | 334° |
| 2026-04-28 10:59 | 5.06259 | 100.17931 | 3987 ft | 168 kts | 334° |
| 2026-04-28 10:59 | 5.07282 | 100.17396 | 3805 ft | 164 kts | 334° |
| 2026-04-28 11:00 | 5.08283 | 100.16871 | 3642 ft | 162 kts | 334° |
| 2026-04-28 11:00 | 5.09275 | 100.16349 | 3479 ft | 160 kts | 334° |
| 2026-04-28 11:00 | 5.10266 | 100.15827 | 3307 ft | 161 kts | 334° |
| 2026-04-28 11:00 | 5.11256 | 100.15307 | 3144 ft | 160 kts | 334° |
| 2026-04-28 11:01 | 5.12242 | 100.14790 | 2980 ft | 160 kts | 333° |
| 2026-04-28 11:01 | 5.13230 | 100.14279 | 2805 ft | 160 kts | 338° |
| 2026-04-28 11:01 | 5.14304 | 100.14136 | 2632 ft | 157 kts | 12° |
| 2026-04-28 11:01 | 5.15279 | 100.14612 | 2468 ft | 158 kts | 41° |
| 2026-04-28 11:02 | 5.16080 | 100.15343 | 2304 ft | 157 kts | 41° |
| 2026-04-28 11:02 | 5.16886 | 100.16072 | 2157 ft | 155 kts | 40° |
| 2026-04-28 11:02 | 5.17688 | 100.16795 | 2070 ft | 156 kts | 40° |
| 2026-04-28 11:02 | 5.18493 | 100.17522 | 2011 ft | 156 kts | 41° |
| 2026-04-28 11:03 | 5.19302 | 100.18254 | 2013 ft | 157 kts | 41° |
| 2026-04-28 11:03 | 5.20114 | 100.18989 | 2002 ft | 158 kts | 40° |
| 2026-04-28 11:03 | 5.20919 | 100.19718 | 1912 ft | 153 kts | 41° |
| 2026-04-28 11:03 | 5.21699 | 100.20425 | 1721 ft | 150 kts | 40° |
| 2026-04-28 11:04 | 5.22476 | 100.21128 | 1533 ft | 150 kts | 41° |
| 2026-04-28 11:04 | 5.23251 | 100.21830 | 1342 ft | 150 kts | 41° |
| 2026-04-28 11:04 | 5.24030 | 100.22535 | 1147 ft | 151 kts | 41° |
| 2026-04-28 11:04 | 5.24808 | 100.23240 | 964 ft | 150 kts | 40° |
| 2026-04-28 11:05 | 5.25580 | 100.23939 | 803 ft | 149 kts | 41° |
| 2026-04-28 11:05 | 5.26346 | 100.24633 | 630 ft | 149 kts | 40° |
| 2026-04-28 11:05 | 5.27116 | 100.25329 | 442 ft | 150 kts | 41° |
| 2026-04-28 11:05 | 5.27893 | 100.26036 | 237 ft | 151 kts | 41° |
| 2026-04-28 11:06 | 5.28658 | 100.26728 | 60 ft | 149 kts | 41° |
| 2026-04-28 11:06 | 5.29376 | 100.27377 | 23 ft | 119 kts | 42° |
| 2026-04-28 11:06 | 5.29866 | 100.27823 | 29 ft | 74 kts | 42° |
| 2026-04-28 11:06 | 5.30115 | 100.28045 | 25 ft | 17 kts | 30° |
| 2026-04-28 11:07 | 5.30171 | 100.28010 | 27 ft | 13 kts | 312° |
| 2026-04-28 11:07 | 5.30197 | 100.27981 | 24 ft | 1 kts | 312° |
| 2026-04-28 11:07 | 5.30204 | 100.27973 | 24 ft | 2 kts | 312° |
| 2026-04-28 11:07 | 5.30215 | 100.27961 | 23 ft | 4 kts | 312° |
| 2026-04-28 11:08 | 5.30230 | 100.27939 | 23 ft | 4 kts | 300° |
| 2026-04-28 11:08 | 5.30228 | 100.27905 | 23 ft | 8 kts | 246° |
| 2026-04-28 11:08 | 5.30177 | 100.27854 | 24 ft | 13 kts | 224° |
| 2026-04-28 11:08 | 5.30094 | 100.27772 | 23 ft | 22 kts | 224° |
| 2026-04-28 11:09 | 5.29955 | 100.27642 | 23 ft | 27 kts | 223° |
| 2026-04-28 11:09 | 5.29830 | 100.27528 | 23 ft | 24 kts | 222° |
| 2026-04-28 11:09 | 5.29696 | 100.27405 | 23 ft | 26 kts | 222° |
| 2026-04-28 11:09 | 5.29556 | 100.27279 | 23 ft | 28 kts | 222° |
| 2026-04-28 11:10 | 5.29413 | 100.27149 | 23 ft | 22 kts | 222° |
| 2026-04-28 11:10 | 5.29337 | 100.27073 | 23 ft | 7 kts | 248° |
| 2026-04-28 11:10 | 5.29350 | 100.27029 | 24 ft | 7 kts | 308° |
| 2026-04-28 11:10 | 5.29396 | 100.26977 | 23 ft | 10 kts | 310° |
| 2026-04-28 11:11 | 5.29397 | 100.26917 | 23 ft | 9 kts | 236° |
| 2026-04-28 11:11 | 5.29372 | 100.26893 | 6 ft | 6 kts | 221° |
| 2026-04-28 11:11 | 5.29369 | 100.26886 | 1 ft | 2 kts | 258° |
| 2026-04-28 11:11 | 5.29375 | 100.26866 | 40 ft | 7 kts | 296° |
| 2026-04-28 11:12 | 5.29396 | 100.26844 | 23 ft | 1 kts | 315° |
| 2026-04-28 11:12 | 5.29403 | 100.26836 | 23 ft | 2 kts | 314° |
| 2026-04-28 11:12 | 5.29415 | 100.26823 | 23 ft | 2 kts | 312° |
| 2026-04-28 11:12 | 5.29416 | 100.26822 | 23 ft | 0 kts | 311° |